SBI1216 UMKK-UUDD
Flight info
| Callsign | SBI1216 |
|---|---|
| Flight time | 1h 43m |
| Altitude | 37000 |
| Route | KRAKI3N KRAKI DCT PODIL/K0832F370 L736 RAMBE N168 BILRU BILRU3N |
| Aircraft | A320/M-SDFGIJ1RWY/LB1 |
Departure
| Time | 2026-05-01 09:36 |
|---|---|
| Airport | Khrabrovo Airport (UMKK) |
Arrival
| Time | 2026-05-01 11:19 |
|---|---|
| Airport | Domodedovo International Airport (UUDD) |
| Time | Latitude | Longitude | Altitude | Speed | Heading |
|---|---|---|---|---|---|
| 2026-05-01 09:20 | 54.88381 | 20.58526 | 27 ft | 0 kts | 155° |
| 2026-05-01 09:23 | 54.88391 | 20.58519 | 27 ft | 3 kts | 155° |
| 2026-05-01 09:23 | 54.88426 | 20.58487 | 27 ft | 3 kts | 130° |
| 2026-05-01 09:24 | 54.88423 | 20.58429 | 27 ft | 3 kts | 62° |
| 2026-05-01 09:24 | 54.88421 | 20.58423 | 27 ft | 0 kts | 63° |
| 2026-05-01 09:27 | 54.88423 | 20.58430 | 27 ft | 4 kts | 63° |
| 2026-05-01 09:28 | 54.88444 | 20.58505 | 27 ft | 7 kts | 65° |
| 2026-05-01 09:28 | 54.88467 | 20.58593 | 27 ft | 11 kts | 65° |
| 2026-05-01 09:28 | 54.88496 | 20.58703 | 27 ft | 9 kts | 66° |
| 2026-05-01 09:28 | 54.88521 | 20.58799 | 27 ft | 8 kts | 60° |
| 2026-05-01 09:29 | 54.88629 | 20.58762 | 27 ft | 11 kts | 336° |
| 2026-05-01 09:29 | 54.88684 | 20.58800 | 26 ft | 10 kts | 68° |
| 2026-05-01 09:30 | 54.88770 | 20.58993 | 30 ft | 13 kts | 27° |
| 2026-05-01 09:30 | 54.88860 | 20.59071 | 26 ft | 16 kts | 26° |
| 2026-05-01 09:30 | 54.89038 | 20.59371 | 25 ft | 21 kts | 65° |
| 2026-05-01 09:31 | 54.89101 | 20.59609 | 23 ft | 23 kts | 65° |
| 2026-05-01 09:31 | 54.89172 | 20.59883 | 22 ft | 26 kts | 66° |
| 2026-05-01 09:31 | 54.89327 | 20.60483 | 24 ft | 28 kts | 65° |
| 2026-05-01 09:32 | 54.89411 | 20.60803 | 21 ft | 30 kts | 65° |
| 2026-05-01 09:32 | 54.89574 | 20.61440 | 22 ft | 17 kts | 66° |
| 2026-05-01 09:32 | 54.89604 | 20.61558 | 23 ft | 10 kts | 66° |
| 2026-05-01 09:33 | 54.89636 | 20.61685 | 23 ft | 13 kts | 65° |
| 2026-05-01 09:33 | 54.89674 | 20.61831 | 26 ft | 13 kts | 65° |
| 2026-05-01 09:33 | 54.89736 | 20.62107 | 24 ft | 9 kts | 95° |
| 2026-05-01 09:34 | 54.89738 | 20.62202 | 24 ft | 7 kts | 54° |
| 2026-05-01 09:34 | 54.89766 | 20.62188 | 24 ft | 4 kts | 293° |
| 2026-05-01 09:34 | 54.89760 | 20.62156 | 24 ft | 0 kts | 246° |
| 2026-05-01 09:35 | 54.89720 | 20.62001 | 24 ft | 46 kts | 246° |
| 2026-05-01 09:35 | 54.89483 | 20.61085 | 22 ft | 117 kts | 246° |
| 2026-05-01 09:36 | 54.89073 | 20.59492 | 50 ft | 167 kts | 246° |
| 2026-05-01 09:36 | 54.88597 | 20.57700 | 801 ft | 161 kts | 246° |
| 2026-05-01 09:36 | 54.88214 | 20.55889 | 1504 ft | 162 kts | 274° |
| 2026-05-01 09:36 | 54.88566 | 20.54109 | 2181 ft | 156 kts | 311° |
| 2026-05-01 09:37 | 54.89423 | 20.52995 | 2820 ft | 156 kts | 341° |
| 2026-05-01 09:37 | 54.91428 | 20.53729 | 4241 ft | 158 kts | 43° |
| 2026-05-01 09:37 | 54.91964 | 20.55416 | 4911 ft | 164 kts | 66° |
| 2026-05-01 09:38 | 54.92716 | 20.59340 | 5856 ft | 189 kts | 65° |
| 2026-05-01 09:38 | 54.93165 | 20.61653 | 6178 ft | 214 kts | 66° |
| 2026-05-01 09:38 | 54.93667 | 20.64245 | 6612 ft | 238 kts | 66° |
| 2026-05-01 09:39 | 54.94785 | 20.70107 | 7936 ft | 265 kts | 70° |
| 2026-05-01 09:39 | 54.94852 | 20.73376 | 8793 ft | 282 kts | 99° |
| 2026-05-01 09:39 | 54.94185 | 20.76641 | 9711 ft | 289 kts | 105° |
| 2026-05-01 09:40 | 54.93437 | 20.79920 | 10561 ft | 295 kts | 106° |
| 2026-05-01 09:40 | 54.91800 | 20.87044 | 11154 ft | 341 kts | 106° |
| 2026-05-01 09:40 | 54.90902 | 20.90928 | 11761 ft | 350 kts | 106° |
| 2026-05-01 09:41 | 54.89984 | 20.94886 | 12529 ft | 354 kts | 106° |
| 2026-05-01 09:41 | 54.88575 | 21.03053 | 14092 ft | 351 kts | 90° |
| 2026-05-01 09:41 | 54.88505 | 21.07262 | 14794 ft | 347 kts | 80° |
| 2026-05-01 09:42 | 54.88690 | 21.11445 | 15498 ft | 349 kts | 79° |
| 2026-05-01 09:42 | 54.88869 | 21.15659 | 16239 ft | 351 kts | 79° |
| 2026-05-01 09:42 | 54.89208 | 21.24166 | 17630 ft | 356 kts | 79° |
| 2026-05-01 09:43 | 54.89539 | 21.32828 | 18934 ft | 362 kts | 79° |
| 2026-05-01 09:43 | 54.89703 | 21.37213 | 19520 ft | 365 kts | 79° |
| 2026-05-01 09:43 | 54.89868 | 21.41636 | 20099 ft | 369 kts | 79° |
| 2026-05-01 09:44 | 54.90201 | 21.50595 | 21267 ft | 375 kts | 79° |
| 2026-05-01 09:44 | 54.90368 | 21.55131 | 21826 ft | 378 kts | 79° |
| 2026-05-01 09:44 | 54.90535 | 21.59708 | 22382 ft | 381 kts | 79° |
| 2026-05-01 09:45 | 54.90703 | 21.64326 | 22896 ft | 385 kts | 79° |
| 2026-05-01 09:45 | 54.91041 | 21.73685 | 23912 ft | 391 kts | 80° |
| 2026-05-01 09:45 | 54.91208 | 21.78418 | 24329 ft | 394 kts | 80° |
| 2026-05-01 09:46 | 54.91374 | 21.83186 | 24747 ft | 396 kts | 80° |
| 2026-05-01 09:46 | 54.91539 | 21.87987 | 25144 ft | 399 kts | 80° |
| 2026-05-01 09:46 | 54.91700 | 21.92750 | 25528 ft | 401 kts | 80° |
| 2026-05-01 09:46 | 54.91863 | 21.97604 | 25916 ft | 404 kts | 80° |
| 2026-05-01 09:47 | 54.92026 | 22.02490 | 26301 ft | 406 kts | 80° |
| 2026-05-01 09:47 | 54.92188 | 22.07411 | 26682 ft | 409 kts | 81° |
| 2026-05-01 09:47 | 54.92347 | 22.12362 | 27046 ft | 411 kts | 81° |
| 2026-05-01 09:47 | 54.92506 | 22.17335 | 27409 ft | 413 kts | 81° |
| 2026-05-01 09:48 | 54.92662 | 22.22338 | 27766 ft | 416 kts | 81° |
| 2026-05-01 09:48 | 54.92817 | 22.27365 | 28100 ft | 418 kts | 81° |
| 2026-05-01 09:48 | 54.92972 | 22.32428 | 28484 ft | 420 kts | 81° |
| 2026-05-01 09:48 | 54.93125 | 22.37508 | 28843 ft | 421 kts | 81° |
| 2026-05-01 09:49 | 54.93276 | 22.42604 | 29179 ft | 423 kts | 81° |
| 2026-05-01 09:49 | 54.93424 | 22.47723 | 29506 ft | 425 kts | 81° |
| 2026-05-01 09:49 | 54.93568 | 22.52869 | 29791 ft | 427 kts | 81° |
| 2026-05-01 09:49 | 54.93712 | 22.58029 | 30067 ft | 429 kts | 81° |
| 2026-05-01 09:50 | 54.93858 | 22.63224 | 30346 ft | 431 kts | 81° |
| 2026-05-01 09:50 | 54.94003 | 22.68429 | 30573 ft | 432 kts | 81° |
| 2026-05-01 09:50 | 54.94146 | 22.73651 | 30865 ft | 432 kts | 81° |
| 2026-05-01 09:50 | 54.94355 | 22.78841 | 31174 ft | 429 kts | 78° |
| 2026-05-01 09:51 | 54.94673 | 22.83986 | 31471 ft | 427 kts | 77° |
| 2026-05-01 09:51 | 54.94922 | 22.87375 | 31654 ft | 427 kts | 76° |
| 2026-05-01 09:51 | 54.95371 | 22.93121 | 31969 ft | 427 kts | 76° |
| 2026-05-01 09:51 | 54.95766 | 22.98224 | 32336 ft | 425 kts | 76° |
| 2026-05-01 09:52 | 54.96140 | 23.03326 | 32678 ft | 424 kts | 76° |
| 2026-05-01 09:52 | 54.96490 | 23.08419 | 32994 ft | 424 kts | 77° |
| 2026-05-01 09:52 | 54.96822 | 23.13512 | 33300 ft | 423 kts | 77° |
| 2026-05-01 09:52 | 54.97144 | 23.18607 | 33608 ft | 423 kts | 77° |
| 2026-05-01 09:53 | 54.97459 | 23.23692 | 33913 ft | 423 kts | 77° |
| 2026-05-01 09:53 | 54.97773 | 23.28777 | 34213 ft | 422 kts | 77° |
| 2026-05-01 09:53 | 54.98087 | 23.33862 | 34496 ft | 422 kts | 77° |
| 2026-05-01 09:53 | 54.98398 | 23.38877 | 34749 ft | 422 kts | 77° |
| 2026-05-01 09:54 | 54.98715 | 23.43965 | 34996 ft | 422 kts | 77° |
| 2026-05-01 09:54 | 54.99031 | 23.49057 | 35236 ft | 422 kts | 77° |
| 2026-05-01 09:54 | 54.99344 | 23.54141 | 35467 ft | 422 kts | 77° |
| 2026-05-01 09:54 | 54.99655 | 23.59225 | 35745 ft | 422 kts | 77° |
| 2026-05-01 09:55 | 54.99961 | 23.64302 | 36016 ft | 421 kts | 77° |
| 2026-05-01 09:55 | 55.00264 | 23.69369 | 36252 ft | 421 kts | 77° |
| 2026-05-01 09:55 | 55.00567 | 23.74443 | 36467 ft | 421 kts | 77° |
| 2026-05-01 09:55 | 55.00850 | 23.79192 | 36664 ft | 421 kts | 77° |
| 2026-05-01 09:56 | 55.01157 | 23.84391 | 36867 ft | 421 kts | 77° |
| 2026-05-01 09:56 | 55.01455 | 23.89466 | 37032 ft | 421 kts | 78° |
| 2026-05-01 09:56 | 55.01751 | 23.94549 | 37211 ft | 422 kts | 78° |
| 2026-05-01 09:56 | 55.02045 | 23.99642 | 37295 ft | 423 kts | 78° |
| 2026-05-01 09:57 | 55.02623 | 24.09869 | 37301 ft | 424 kts | 78° |
| 2026-05-01 09:57 | 55.03192 | 24.20117 | 37343 ft | 425 kts | 78° |
| 2026-05-01 09:58 | 55.03749 | 24.30234 | 37302 ft | 423 kts | 78° |
| 2026-05-01 09:58 | 55.04302 | 24.40444 | 37315 ft | 423 kts | 78° |
| 2026-05-01 09:59 | 55.04851 | 24.50680 | 37319 ft | 423 kts | 78° |
| 2026-05-01 09:59 | 55.05392 | 24.60909 | 37320 ft | 424 kts | 78° |
| 2026-05-01 10:00 | 55.05920 | 24.71156 | 37323 ft | 424 kts | 78° |
| 2026-05-01 10:00 | 55.06439 | 24.81424 | 37330 ft | 424 kts | 78° |
| 2026-05-01 10:01 | 55.06951 | 24.91653 | 37313 ft | 422 kts | 78° |
| 2026-05-01 10:01 | 55.07456 | 25.01856 | 37317 ft | 422 kts | 78° |
| 2026-05-01 10:02 | 55.07947 | 25.12072 | 37311 ft | 423 kts | 78° |
| 2026-05-01 10:02 | 55.08434 | 25.22301 | 37313 ft | 423 kts | 78° |
| 2026-05-01 10:03 | 55.08913 | 25.32482 | 37314 ft | 423 kts | 78° |
| 2026-05-01 10:03 | 55.09369 | 25.42444 | 37314 ft | 423 kts | 78° |
| 2026-05-01 10:04 | 55.09824 | 25.52690 | 37309 ft | 421 kts | 78° |
| 2026-05-01 10:04 | 55.10271 | 25.62889 | 37303 ft | 420 kts | 78° |
| 2026-05-01 10:05 | 55.10712 | 25.73092 | 37303 ft | 421 kts | 78° |
| 2026-05-01 10:05 | 55.11143 | 25.83230 | 37304 ft | 421 kts | 79° |
| 2026-05-01 10:06 | 55.11564 | 25.93311 | 37310 ft | 421 kts | 79° |
| 2026-05-01 10:06 | 55.11977 | 26.03473 | 37304 ft | 421 kts | 79° |
| 2026-05-01 10:07 | 55.12387 | 26.13695 | 37307 ft | 421 kts | 79° |
| 2026-05-01 10:07 | 55.12775 | 26.23663 | 37293 ft | 420 kts | 79° |
| 2026-05-01 10:08 | 55.13352 | 26.38830 | 37297 ft | 420 kts | 79° |
| 2026-05-01 10:09 | 55.13513 | 26.49026 | 37300 ft | 429 kts | 88° |
| 2026-05-01 10:09 | 55.12647 | 26.59416 | 37303 ft | 432 kts | 91° |
| 2026-05-01 10:10 | 55.11733 | 26.69823 | 37302 ft | 433 kts | 91° |
| 2026-05-01 10:10 | 55.10349 | 26.85350 | 37297 ft | 430 kts | 91° |
| 2026-05-01 10:11 | 55.09442 | 26.95578 | 37301 ft | 430 kts | 91° |
| 2026-05-01 10:11 | 55.08536 | 27.05719 | 37300 ft | 431 kts | 91° |
| 2026-05-01 10:12 | 55.07768 | 27.14243 | 37300 ft | 431 kts | 91° |
| 2026-05-01 10:13 | 55.06169 | 27.31484 | 37304 ft | 431 kts | 91° |
| 2026-05-01 10:13 | 55.05287 | 27.40958 | 37301 ft | 429 kts | 90° |
| 2026-05-01 10:14 | 55.04778 | 27.56112 | 37299 ft | 423 kts | 85° |
| 2026-05-01 10:14 | 55.04502 | 27.66282 | 37297 ft | 423 kts | 85° |
| 2026-05-01 10:15 | 55.04214 | 27.76375 | 37288 ft | 423 kts | 85° |
| 2026-05-01 10:15 | 55.03931 | 27.86325 | 37284 ft | 423 kts | 85° |
| 2026-05-01 10:16 | 55.03630 | 27.96586 | 37288 ft | 423 kts | 85° |
| 2026-05-01 10:17 | 55.03176 | 28.11614 | 37283 ft | 423 kts | 85° |
| 2026-05-01 10:17 | 55.02689 | 28.26992 | 37280 ft | 423 kts | 85° |
| 2026-05-01 10:18 | 55.02181 | 28.42280 | 37275 ft | 423 kts | 85° |
| 2026-05-01 10:19 | 55.01831 | 28.52518 | 37286 ft | 423 kts | 85° |
| 2026-05-01 10:19 | 55.01476 | 28.62752 | 37279 ft | 423 kts | 86° |
| 2026-05-01 10:20 | 55.00934 | 28.78034 | 37267 ft | 423 kts | 86° |
| 2026-05-01 10:20 | 55.00560 | 28.88288 | 37276 ft | 423 kts | 86° |
| 2026-05-01 10:21 | 54.99972 | 29.03619 | 37265 ft | 424 kts | 86° |
| 2026-05-01 10:22 | 54.99361 | 29.19027 | 37281 ft | 425 kts | 86° |
| 2026-05-01 10:23 | 54.98736 | 29.34428 | 37270 ft | 425 kts | 86° |
| 2026-05-01 10:23 | 54.98105 | 29.49758 | 37264 ft | 425 kts | 86° |
| 2026-05-01 10:24 | 54.97226 | 29.69824 | 37258 ft | 425 kts | 87° |
| 2026-05-01 10:25 | 54.96384 | 29.88623 | 37245 ft | 426 kts | 87° |
| 2026-05-01 10:26 | 54.95909 | 29.98918 | 37246 ft | 426 kts | 87° |
| 2026-05-01 10:27 | 54.94936 | 30.19435 | 37248 ft | 426 kts | 87° |
| 2026-05-01 10:28 | 54.94185 | 30.34898 | 37281 ft | 428 kts | 88° |
| 2026-05-01 10:28 | 54.93411 | 30.50362 | 37268 ft | 428 kts | 88° |
| 2026-05-01 10:29 | 54.92618 | 30.65769 | 37264 ft | 428 kts | 88° |
| 2026-05-01 10:30 | 54.92019 | 30.86257 | 37293 ft | 415 kts | 75° |
| 2026-05-01 10:31 | 54.94279 | 31.05312 | 37271 ft | 413 kts | 72° |
| 2026-05-01 10:32 | 54.96005 | 31.20039 | 37288 ft | 413 kts | 72° |
| 2026-05-01 10:33 | 54.98275 | 31.39611 | 37271 ft | 414 kts | 72° |
| 2026-05-01 10:34 | 54.99982 | 31.54355 | 37262 ft | 414 kts | 72° |
| 2026-05-01 10:34 | 55.01071 | 31.63927 | 37267 ft | 415 kts | 73° |
| 2026-05-01 10:35 | 55.02733 | 31.78699 | 37253 ft | 416 kts | 73° |
| 2026-05-01 10:35 | 55.03842 | 31.88608 | 37252 ft | 416 kts | 73° |
| 2026-05-01 10:36 | 55.05484 | 32.03505 | 37260 ft | 417 kts | 73° |
| 2026-05-01 10:37 | 55.06566 | 32.13386 | 37252 ft | 417 kts | 73° |
| 2026-05-01 10:37 | 55.08169 | 32.28216 | 37252 ft | 418 kts | 73° |
| 2026-05-01 10:38 | 55.09241 | 32.38196 | 37261 ft | 419 kts | 74° |
| 2026-05-01 10:38 | 55.10313 | 32.48215 | 37246 ft | 420 kts | 74° |
| 2026-05-01 10:39 | 55.11354 | 32.58135 | 37241 ft | 421 kts | 75° |
| 2026-05-01 10:39 | 55.12392 | 32.68063 | 37250 ft | 421 kts | 74° |
| 2026-05-01 10:40 | 55.13414 | 32.77808 | 37253 ft | 422 kts | 74° |
| 2026-05-01 10:40 | 55.14463 | 32.87927 | 37254 ft | 422 kts | 75° |
| 2026-05-01 10:41 | 55.15493 | 32.98049 | 37255 ft | 423 kts | 75° |
| 2026-05-01 10:42 | 55.17014 | 33.13185 | 37286 ft | 423 kts | 75° |
| 2026-05-01 10:42 | 55.18038 | 33.23411 | 37263 ft | 425 kts | 75° |
| 2026-05-01 10:43 | 55.19043 | 33.33537 | 37252 ft | 425 kts | 76° |
| 2026-05-01 10:43 | 55.20043 | 33.43758 | 37259 ft | 426 kts | 76° |
| 2026-05-01 10:44 | 55.21032 | 33.53988 | 37252 ft | 426 kts | 76° |
| 2026-05-01 10:44 | 55.22015 | 33.64243 | 37249 ft | 427 kts | 76° |
| 2026-05-01 10:45 | 55.23001 | 33.74498 | 37250 ft | 427 kts | 76° |
| 2026-05-01 10:45 | 55.23976 | 33.84777 | 37251 ft | 427 kts | 76° |
| 2026-05-01 10:46 | 55.24935 | 33.94991 | 37248 ft | 428 kts | 76° |
| 2026-05-01 10:46 | 55.25885 | 34.05300 | 37244 ft | 429 kts | 77° |
| 2026-05-01 10:47 | 55.26828 | 34.15640 | 37239 ft | 429 kts | 77° |
| 2026-05-01 10:47 | 55.27773 | 34.25987 | 37250 ft | 430 kts | 77° |
| 2026-05-01 10:48 | 55.28698 | 34.36118 | 37244 ft | 430 kts | 77° |
| 2026-05-01 10:48 | 55.29626 | 34.46485 | 37251 ft | 430 kts | 77° |
| 2026-05-01 10:49 | 55.30547 | 34.56856 | 37254 ft | 430 kts | 77° |
| 2026-05-01 10:49 | 55.31439 | 34.67003 | 37254 ft | 430 kts | 77° |
| 2026-05-01 10:50 | 55.32329 | 34.77344 | 37249 ft | 430 kts | 77° |
| 2026-05-01 10:50 | 55.33215 | 34.87739 | 36748 ft | 430 kts | 77° |
| 2026-05-01 10:50 | 55.33655 | 34.92935 | 35953 ft | 430 kts | 77° |
| 2026-05-01 10:51 | 55.34092 | 34.98121 | 35163 ft | 429 kts | 76° |
| 2026-05-01 10:51 | 55.34527 | 35.03312 | 34313 ft | 429 kts | 76° |
| 2026-05-01 10:51 | 55.34958 | 35.08488 | 33398 ft | 426 kts | 76° |
| 2026-05-01 10:51 | 55.35382 | 35.13627 | 32443 ft | 424 kts | 75° |
| 2026-05-01 10:52 | 55.35803 | 35.18733 | 31450 ft | 421 kts | 75° |
| 2026-05-01 10:52 | 55.36219 | 35.23787 | 30506 ft | 418 kts | 74° |
| 2026-05-01 10:52 | 55.36627 | 35.28798 | 29767 ft | 409 kts | 74° |
| 2026-05-01 10:52 | 55.37018 | 35.33681 | 29136 ft | 399 kts | 74° |
| 2026-05-01 10:53 | 55.37399 | 35.38454 | 28531 ft | 390 kts | 74° |
| 2026-05-01 10:53 | 55.37775 | 35.43145 | 27882 ft | 384 kts | 74° |
| 2026-05-01 10:53 | 55.38145 | 35.47755 | 27414 ft | 376 kts | 74° |
| 2026-05-01 10:53 | 55.38501 | 35.52218 | 27186 ft | 362 kts | 74° |
| 2026-05-01 10:54 | 55.38716 | 35.56610 | 26893 ft | 361 kts | 81° |
| 2026-05-01 10:54 | 55.38539 | 35.61003 | 26637 ft | 367 kts | 90° |
| 2026-05-01 10:54 | 55.38047 | 35.65435 | 26376 ft | 369 kts | 92° |
| 2026-05-01 10:54 | 55.37536 | 35.69827 | 26106 ft | 367 kts | 92° |
| 2026-05-01 10:55 | 55.37034 | 35.74135 | 25876 ft | 366 kts | 92° |
| 2026-05-01 10:55 | 55.36522 | 35.78512 | 25619 ft | 365 kts | 92° |
| 2026-05-01 10:55 | 55.36009 | 35.82869 | 25365 ft | 363 kts | 93° |
| 2026-05-01 10:55 | 55.35497 | 35.87216 | 25121 ft | 362 kts | 93° |
| 2026-05-01 10:56 | 55.34991 | 35.91542 | 24870 ft | 361 kts | 93° |
| 2026-05-01 10:56 | 55.34486 | 35.95863 | 24626 ft | 360 kts | 93° |
| 2026-05-01 10:56 | 55.33986 | 36.00167 | 24385 ft | 359 kts | 93° |
| 2026-05-01 10:56 | 55.33488 | 36.04454 | 24178 ft | 357 kts | 93° |
| 2026-05-01 10:57 | 55.32990 | 36.08706 | 23943 ft | 354 kts | 93° |
| 2026-05-01 10:57 | 55.32495 | 36.12927 | 23691 ft | 352 kts | 93° |
| 2026-05-01 10:57 | 55.32000 | 36.17127 | 23397 ft | 351 kts | 93° |
| 2026-05-01 10:57 | 55.31512 | 36.21264 | 23116 ft | 350 kts | 94° |
| 2026-05-01 10:58 | 55.31030 | 36.25335 | 22835 ft | 348 kts | 94° |
| 2026-05-01 10:58 | 55.30557 | 36.29299 | 22571 ft | 347 kts | 94° |
| 2026-05-01 10:58 | 55.30277 | 36.31649 | 22415 ft | 347 kts | 94° |
| 2026-05-01 10:58 | 55.29798 | 36.35664 | 22147 ft | 346 kts | 94° |
| 2026-05-01 10:59 | 55.29311 | 36.39741 | 21872 ft | 345 kts | 94° |
| 2026-05-01 10:59 | 55.28806 | 36.43844 | 21600 ft | 344 kts | 94° |
| 2026-05-01 10:59 | 55.28286 | 36.47938 | 21293 ft | 342 kts | 95° |
| 2026-05-01 10:59 | 55.27756 | 36.51998 | 20800 ft | 340 kts | 95° |
| 2026-05-01 11:00 | 55.27225 | 36.56026 | 20300 ft | 338 kts | 95° |
| 2026-05-01 11:00 | 55.26702 | 36.60030 | 19862 ft | 336 kts | 95° |
| 2026-05-01 11:00 | 55.26189 | 36.64011 | 19405 ft | 333 kts | 95° |
| 2026-05-01 11:00 | 55.25698 | 36.67970 | 18940 ft | 331 kts | 95° |
| 2026-05-01 11:01 | 55.25218 | 36.71904 | 18478 ft | 330 kts | 95° |
| 2026-05-01 11:01 | 55.24739 | 36.75839 | 17958 ft | 329 kts | 95° |
| 2026-05-01 11:01 | 55.24266 | 36.79754 | 17462 ft | 327 kts | 95° |
| 2026-05-01 11:01 | 55.23792 | 36.83641 | 16985 ft | 326 kts | 95° |
| 2026-05-01 11:02 | 55.23311 | 36.87511 | 16532 ft | 325 kts | 96° |
| 2026-05-01 11:02 | 55.22807 | 36.91358 | 16080 ft | 324 kts | 97° |
| 2026-05-01 11:02 | 55.22294 | 36.95188 | 15639 ft | 322 kts | 97° |
| 2026-05-01 11:02 | 55.21779 | 36.99002 | 15207 ft | 321 kts | 97° |
| 2026-05-01 11:03 | 55.21300 | 37.02588 | 14797 ft | 320 kts | 97° |
| 2026-05-01 11:03 | 55.20814 | 37.06328 | 14407 ft | 318 kts | 97° |
| 2026-05-01 11:03 | 55.20330 | 37.10098 | 13990 ft | 317 kts | 97° |
| 2026-05-01 11:03 | 55.19848 | 37.13854 | 13516 ft | 316 kts | 98° |
| 2026-05-01 11:04 | 55.19367 | 37.17594 | 13051 ft | 314 kts | 98° |
| 2026-05-01 11:04 | 55.18774 | 37.21280 | 12584 ft | 316 kts | 107° |
| 2026-05-01 11:04 | 55.17826 | 37.24756 | 12133 ft | 318 kts | 116° |
| 2026-05-01 11:04 | 55.16730 | 37.28101 | 11700 ft | 316 kts | 116° |
| 2026-05-01 11:05 | 55.15644 | 37.31434 | 11265 ft | 314 kts | 116° |
| 2026-05-01 11:05 | 55.14575 | 37.34724 | 11014 ft | 306 kts | 117° |
| 2026-05-01 11:05 | 55.13536 | 37.37906 | 10878 ft | 295 kts | 117° |
| 2026-05-01 11:05 | 55.12527 | 37.40996 | 10617 ft | 290 kts | 117° |
| 2026-05-01 11:06 | 55.11543 | 37.44014 | 10263 ft | 288 kts | 117° |
| 2026-05-01 11:06 | 55.10553 | 37.47050 | 9877 ft | 287 kts | 117° |
| 2026-05-01 11:06 | 55.09566 | 37.50069 | 9467 ft | 285 kts | 117° |
| 2026-05-01 11:07 | 55.07630 | 37.55964 | 8661 ft | 282 kts | 118° |
| 2026-05-01 11:07 | 55.06684 | 37.58843 | 8261 ft | 281 kts | 118° |
| 2026-05-01 11:07 | 55.05717 | 37.61784 | 7856 ft | 279 kts | 118° |
| 2026-05-01 11:07 | 55.04754 | 37.64710 | 7460 ft | 277 kts | 118° |
| 2026-05-01 11:08 | 55.04000 | 37.67758 | 7061 ft | 272 kts | 98° |
| 2026-05-01 11:08 | 55.04085 | 37.70988 | 6650 ft | 267 kts | 70° |
| 2026-05-01 11:08 | 55.05572 | 37.76779 | 6069 ft | 252 kts | 62° |
| 2026-05-01 11:09 | 55.06322 | 37.79456 | 5930 ft | 241 kts | 62° |
| 2026-05-01 11:09 | 55.07044 | 37.82026 | 5794 ft | 230 kts | 62° |
| 2026-05-01 11:09 | 55.07725 | 37.84467 | 5572 ft | 224 kts | 62° |
| 2026-05-01 11:10 | 55.09081 | 37.89311 | 5038 ft | 219 kts | 62° |
| 2026-05-01 11:10 | 55.09752 | 37.91694 | 4820 ft | 214 kts | 62° |
| 2026-05-01 11:10 | 55.10383 | 37.93955 | 4611 ft | 212 kts | 62° |
| 2026-05-01 11:10 | 55.11029 | 37.96265 | 4396 ft | 211 kts | 59° |
| 2026-05-01 11:11 | 55.11823 | 37.98446 | 4184 ft | 209 kts | 53° |
| 2026-05-01 11:11 | 55.12655 | 38.00480 | 3976 ft | 209 kts | 52° |
| 2026-05-01 11:11 | 55.13495 | 38.02514 | 3755 ft | 208 kts | 52° |
| 2026-05-01 11:11 | 55.14340 | 38.04567 | 3558 ft | 208 kts | 52° |
| 2026-05-01 11:12 | 55.15192 | 38.06614 | 3347 ft | 208 kts | 52° |
| 2026-05-01 11:12 | 55.16048 | 38.08651 | 3172 ft | 208 kts | 52° |
| 2026-05-01 11:12 | 55.16933 | 38.10639 | 3049 ft | 206 kts | 42° |
| 2026-05-01 11:12 | 55.18091 | 38.12046 | 3005 ft | 203 kts | 21° |
| 2026-05-01 11:13 | 55.19450 | 38.12631 | 3010 ft | 201 kts | 1° |
| 2026-05-01 11:13 | 55.20374 | 38.12531 | 3011 ft | 201 kts | 347° |
| 2026-05-01 11:13 | 55.21671 | 38.11638 | 3010 ft | 202 kts | 326° |
| 2026-05-01 11:13 | 55.22829 | 38.10263 | 3010 ft | 201 kts | 325° |
| 2026-05-01 11:14 | 55.23982 | 38.08892 | 3005 ft | 200 kts | 325° |
| 2026-05-01 11:14 | 55.25137 | 38.07518 | 3008 ft | 201 kts | 326° |
| 2026-05-01 11:14 | 55.26275 | 38.06164 | 3004 ft | 192 kts | 325° |
| 2026-05-01 11:14 | 55.27333 | 38.04905 | 3034 ft | 175 kts | 325° |
| 2026-05-01 11:15 | 55.28291 | 38.03762 | 3011 ft | 159 kts | 325° |
| 2026-05-01 11:15 | 55.29167 | 38.02718 | 2984 ft | 146 kts | 325° |
| 2026-05-01 11:15 | 55.29988 | 38.01739 | 2864 ft | 139 kts | 324° |
| 2026-05-01 11:15 | 55.30776 | 38.00797 | 2710 ft | 136 kts | 324° |
| 2026-05-01 11:16 | 55.31556 | 37.99865 | 2541 ft | 135 kts | 324° |
| 2026-05-01 11:16 | 55.32319 | 37.98954 | 2383 ft | 131 kts | 324° |
| 2026-05-01 11:16 | 55.33067 | 37.98059 | 2196 ft | 130 kts | 324° |
| 2026-05-01 11:16 | 55.33813 | 37.97167 | 2010 ft | 130 kts | 324° |
| 2026-05-01 11:17 | 55.34558 | 37.96275 | 1826 ft | 128 kts | 324° |
| 2026-05-01 11:17 | 55.35293 | 37.95395 | 1641 ft | 128 kts | 324° |
| 2026-05-01 11:17 | 55.36031 | 37.94508 | 1463 ft | 129 kts | 324° |
| 2026-05-01 11:17 | 55.36773 | 37.93624 | 1254 ft | 129 kts | 324° |
| 2026-05-01 11:18 | 55.37514 | 37.92733 | 1057 ft | 130 kts | 324° |
| 2026-05-01 11:18 | 55.38266 | 37.91830 | 872 ft | 132 kts | 324° |
| 2026-05-01 11:18 | 55.39031 | 37.90920 | 695 ft | 133 kts | 323° |
| 2026-05-01 11:18 | 55.39794 | 37.89996 | 550 ft | 129 kts | 324° |
| 2026-05-01 11:19 | 55.40405 | 37.89262 | 565 ft | 82 kts | 326° |
| 2026-05-01 11:19 | 55.40717 | 37.88890 | 573 ft | 28 kts | 329° |
| 2026-05-01 11:19 | 55.40878 | 37.88775 | 582 ft | 24 kts | 347° |
| 2026-05-01 11:19 | 55.40990 | 37.88753 | 576 ft | 10 kts | 355° |
| 2026-05-01 11:20 | 55.41043 | 37.88775 | 576 ft | 6 kts | 40° |
| 2026-05-01 11:20 | 55.41048 | 37.88844 | 580 ft | 7 kts | 116° |
| 2026-05-01 11:20 | 55.41009 | 37.88900 | 579 ft | 7 kts | 145° |
| 2026-05-01 11:20 | 55.40993 | 37.88919 | 576 ft | 7 kts | 145° |
| 2026-05-01 11:21 | 55.40954 | 37.88967 | 579 ft | 7 kts | 146° |
| 2026-05-01 11:21 | 55.40892 | 37.89041 | 579 ft | 13 kts | 146° |
| 2026-05-01 11:21 | 55.40834 | 37.89112 | 573 ft | 6 kts | 144° |
| 2026-05-01 11:21 | 55.40792 | 37.89205 | 572 ft | 15 kts | 114° |
| 2026-05-01 11:22 | 55.40796 | 37.89395 | 572 ft | 17 kts | 64° |
| 2026-05-01 11:22 | 55.40865 | 37.89547 | 576 ft | 15 kts | 46° |
| 2026-05-01 11:22 | 55.40926 | 37.89694 | 573 ft | 15 kts | 56° |
| 2026-05-01 11:22 | 55.40981 | 37.89836 | 569 ft | 14 kts | 56° |
| 2026-05-01 11:23 | 55.41033 | 37.89970 | 569 ft | 13 kts | 56° |
| 2026-05-01 11:23 | 55.41081 | 37.90093 | 574 ft | 9 kts | 56° |
| 2026-05-01 11:23 | 55.41125 | 37.90156 | 570 ft | 8 kts | 17° |
| 2026-05-01 11:23 | 55.41172 | 37.90170 | 571 ft | 7 kts | 13° |
| 2026-05-01 11:24 | 55.41210 | 37.90228 | 574 ft | 7 kts | 50° |
| 2026-05-01 11:24 | 55.41245 | 37.90248 | 576 ft | 4 kts | 344° |
| 2026-05-01 11:24 | 55.41294 | 37.90161 | 574 ft | 6 kts | 271° |
| 2026-05-01 11:25 | 55.41275 | 37.90109 | 575 ft | 5 kts | 234° |
| 2026-05-01 11:25 | 55.41263 | 37.90078 | 576 ft | 0 kts | 235° |